Time;durP1;ratioP1;P1;durP2;ratioP2;P2;SDS_P1;SDS_P2;PMS_P1;PMS_P2;Temp;Humidity;BMP_temperature;BMP_pressure;BME280_temperature;BME280_humidity;BME280_pressure;Samples;Min_cycle;Max_cycle;Signal;HPM_P1;HPM_P2
2022/02/11 00:02:17;;;;;;;36.67;26.40;;;;;;;5.14;57.30;100384.34;5016778;28;20021;-90
2022/02/11 00:07:38;;;;;;;34.80;25.67;;;;;;;5.43;57.21;100423.91;5093815;23;20054;-93
2022/02/11 00:10:06;;;;;;;33.93;26.17;;;;;;;4.25;57.50;100272.78;5024472;28;20032;-91
2022/02/11 00:12:32;;;;;;;30.60;23.47;;;;;;;5.29;57.72;100405.88;5018798;28;20031;-91
2022/02/11 00:20:23;;;;;;;26.27;19.47;;;;;;;4.14;57.83;100275.41;5246946;23;20030;-90
2022/02/11 00:22:49;;;;;;;27.47;20.80;;;;;;;3.68;57.53;100197.13;5048049;23;20018;-93
2022/02/11 00:33:32;;;;;;;28.47;19.97;;;;;;;3.08;57.61;100135.59;5577572;23;20037;-89
2022/02/11 07:37:01;;;;;;;34.23;24.93;;;;;;;5.13;57.68;100418.47;5424063;23;20438;-91
2022/02/11 07:39:28;;;;;;;38.83;26.30;;;;;;;3.68;57.45;100087.44;4987649;28;20073;-92
2022/02/11 07:41:53;;;;;;;40.60;27.23;;;;;;;4.16;57.21;100202.94;4982631;28;20026;-90
2022/02/11 07:44:19;;;;;;;42.87;29.10;;;;;;;4.96;57.30;100304.69;4982300;28;20034;-95
2022/02/11 07:46:44;;;;;;;44.60;27.53;;;;;;;5.58;57.20;100383.38;4977773;28;20026;-93
2022/02/11 07:49:10;;;;;;;35.27;26.57;;;;;;;5.28;56.96;100305.53;4979088;28;20121;-95
2022/02/11 07:51:35;;;;;;;36.07;24.47;;;;;;;4.94;56.84;100247.22;4979507;28;20030;-94
2022/02/11 07:54:00;;;;;;;34.50;23.43;;;;;;;4.83;56.51;100204.59;4979356;28;20114;-93
2022/02/11 07:56:26;;;;;;;31.17;20.93;;;;;;;5.63;56.75;100320.13;4979354;28;20037;-94
2022/02/11 07:58:51;;;;;;;64.10;24.77;;;;;;;5.84;56.56;100344.53;4974474;28;20037;-94
2022/02/11 08:01:19;;;;;;;46.47;23.33;;;;;;;5.20;56.61;100247.75;4959827;28;20118;-96
2022/02/11 08:03:45;;;;;;;70.40;26.23;;;;;;;4.84;56.39;100154.75;4959586;28;20035;-96
2022/02/11 08:06:11;;;;;;;117.27;34.87;;;;;;;4.97;56.10;100175.50;4959030;28;20079;-96
2022/02/11 08:08:37;;;;;;;87.60;32.43;;;;;;;6.28;56.42;100359.22;4959316;28;20422;-96
2022/02/11 08:11:02;;;;;;;62.90;29.90;;;;;;;6.27;56.21;100349.69;4959395;28;20027;-96
2022/02/11 08:13:28;;;;;;;51.87;26.90;;;;;;;6.36;56.05;100353.31;4959081;28;20440;-94
2022/02/11 08:15:54;;;;;;;41.17;28.03;;;;;;;6.01;55.87;100291.59;4959890;28;20177;-96
2022/02/11 08:18:20;;;;;;;36.27;26.17;;;;;;;5.11;55.80;100165.53;4958396;28;20019;-96
2022/02/11 08:20:45;;;;;;;32.40;25.57;;;;;;;6.53;55.93;100355.31;4958058;28;20093;-96
2022/02/11 08:23:11;;;;;;;33.33;25.00;;;;;;;6.67;55.57;100354.13;4958313;28;20041;-96
2022/02/11 08:25:36;;;;;;;33.90;24.77;;;;;;;6.71;55.67;100345.03;4957849;28;20038;-95
2022/02/11 08:28:02;;;;;;;40.17;26.60;;;;;;;6.63;55.52;100316.81;4957918;28;20033;-95
2022/02/11 08:30:28;;;;;;;39.58;29.05;;;;;;;7.05;55.32;100371.78;4956631;28;20058;-96
2022/02/11 08:32:53;;;;;;;36.50;29.03;;;;;;;7.12;55.02;100353.69;4957400;28;20038;-96
2022/02/11 08:35:19;;;;;;;38.93;27.60;;;;;;;7.23;55.41;100351.78;4958087;28;20027;-95
2022/02/11 08:37:44;;;;;;;38.63;28.10;;;;;;;7.32;55.63;100361.47;4958301;28;20051;-96
2022/02/11 08:40:10;;;;;;;37.67;27.02;;;;;;;7.40;55.77;100352.06;4958394;28;20058;-95
2022/02/11 08:42:36;;;;;;;34.60;24.10;;;;;;;7.43;55.20;100350.03;4957654;28;20023;-95
2022/02/11 08:45:02;;;;;;;34.15;26.02;;;;;;;7.27;55.18;100300.63;4956413;28;20037;-96
2022/02/11 08:47:28;;;;;;;36.73;25.70;;;;;;;7.43;55.18;100333.41;4957625;28;20093;-95
2022/02/11 08:49:54;;;;;;;33.33;23.55;;;;;;;7.79;54.72;100360.78;4956470;28;20031;-96
2022/02/11 08:52:25;;;;;;;36.30;25.70;;;;;;;7.79;54.25;100324.00;4952033;28;20042;-96
2022/02/11 08:54:51;;;;;;;32.78;23.00;;;;;;;6.78;54.36;100183.44;4938715;28;20019;-96
2022/02/11 08:57:16;;;;;;;16.08;11.85;;;;;;;7.29;53.75;100240.06;4955929;28;20109;-96
2022/02/11 08:59:41;;;;;;;11.07;8.68;;;;;;;7.95;53.53;100316.34;4940138;29;20035;-96
2022/02/11 09:02:11;;;;;;;15.20;11.90;;;;;;;8.02;53.35;100306.91;4938604;29;20544;-96
2022/02/11 09:04:37;;;;;;;13.02;10.65;;;;;;;7.97;52.88;100275.78;4938723;29;20031;-96
2022/02/11 09:07:02;;;;;;;19.63;11.63;;;;;;;7.91;52.50;100250.06;4954634;29;20037;-95
2022/02/11 09:09:28;;;;;;;17.73;10.88;;;;;;;8.47;52.83;100322.03;4938678;29;20086;-95
2022/02/11 09:11:53;;;;;;;9.82;8.45;;;;;;;8.09;52.29;100268.53;4938858;29;20031;-95
2022/02/11 09:14:19;;;;;;;11.63;9.65;;;;;;;8.18;52.48;100251.94;4939143;29;20023;-95
2022/02/11 09:16:44;;;;;;;16.10;10.00;;;;;;;8.80;52.02;100347.78;4938686;29;20035;-96
2022/02/11 09:19:09;;;;;;;28.95;12.07;;;;;;;8.76;52.04;100327.97;4938653;29;20027;-96
2022/02/11 09:21:36;;;;;;;14.45;10.77;;;;;;;8.49;52.06;100299.03;4955354;29;20511;-95
2022/02/11 09:24:01;;;;;;;16.73;12.32;;;;;;;8.63;52.16;100298.53;4938928;29;20543;-95
2022/02/11 09:26:27;;;;;;;13.02;11.30;;;;;;;8.65;51.66;100259.72;4956204;29;20027;-96
2022/02/11 09:28:53;;;;;;;14.13;10.52;;;;;;;9.03;51.90;100292.91;4956565;29;20027;-96
2022/02/11 09:31:19;;;;;;;13.25;10.32;;;;;;;9.27;51.63;100321.28;4957259;28;20025;-93
2022/02/11 09:33:44;;;;;;;18.02;12.90;;;;;;;8.84;51.31;100256.16;4963237;28;20027;-94
2022/02/11 09:36:11;;;;;;;21.65;15.02;;;;;;;9.19;51.54;100289.59;4962403;28;20034;-93
2022/02/11 09:38:37;;;;;;;19.65;13.88;;;;;;;9.55;51.45;100320.22;4962485;29;20110;-94
2022/02/11 09:41:03;;;;;;;17.35;12.07;;;;;;;9.41;51.19;100297.03;4961471;29;20027;-92
2022/02/11 09:43:28;;;;;;;15.80;11.15;;;;;;;9.07;50.99;100201.25;4954573;29;20090;-94
2022/02/11 09:45:56;;;;;;;12.50;9.60;;;;;;;9.61;51.01;100257.31;4938832;29;20424;-94
2022/02/11 09:48:23;;;;;;;12.48;9.63;;;;;;;9.96;50.89;100290.69;4938420;29;20106;-94
2022/02/11 09:50:53;;;;;;;14.80;11.02;;;;;;;9.90;50.81;100280.78;4938803;29;20118;-93
2022/02/11 09:53:19;;;;;;;17.90;11.07;;;;;;;10.15;50.73;100301.03;4938872;29;20484;-94
2022/02/11 09:55:45;;;;;;;15.18;10.85;;;;;;;9.66;50.43;100205.81;4954238;28;20050;-94
2022/02/11 09:58:14;;;;;;;13.98;9.45;;;;;;;10.08;50.42;100241.97;4958123;28;20033;-93
2022/02/11 10:00:44;;;;;;;10.48;9.38;;;;;;;10.13;50.09;100237.03;4960128;28;20023;-91
2022/02/11 10:03:20;;;;;;;10.75;8.60;;;;;;;10.11;50.13;100231.91;4981193;28;20042;-92
2022/02/11 10:05:49;;;;;;;11.18;9.02;;;;;;;10.30;49.74;100236.16;4981165;28;20037;-92
2022/02/11 10:08:16;;;;;;;22.08;11.63;;;;;;;9.72;49.63;100141.91;4977504;28;20087;-93
2022/02/11 10:10:44;;;;;;;15.13;10.70;;;;;;;10.39;49.32;100237.84;4975545;28;20041;-94
2022/02/11 10:13:16;;;;;;;13.40;9.55;;;;;;;9.83;49.62;100143.44;4972667;28;20033;-92
2022/02/11 10:15:44;;;;;;;9.63;8.60;;;;;;;10.77;49.43;100247.03;4957712;28;20022;-92
2022/02/11 10:18:11;;;;;;;11.88;9.88;;;;;;;10.16;49.19;100150.47;4956728;28;20050;-92
2022/02/11 10:20:40;;;;;;;11.88;9.98;;;;;;;10.86;48.97;100247.06;4956348;28;20031;-91
2022/02/11 10:23:17;;;;;;;10.98;9.20;;;;;;;10.72;49.08;100201.81;4955763;28;20034;-94
2022/02/11 10:26:05;;;;;;;11.77;8.65;;;;;;;11.07;48.68;100234.19;4955840;28;20027;-95
2022/02/11 10:28:48;;;;;;;11.65;8.70;;;;;;;11.19;48.61;100248.78;4956487;28;20058;-93
2022/02/11 10:31:18;;;;;;;11.63;8.27;;;;;;;10.89;49.07;100164.84;4960633;28;20026;-95
2022/02/11 10:33:48;;;;;;;10.25;8.55;;;;;;;11.40;48.27;100225.31;4973728;28;20026;-94
2022/02/11 10:36:15;;;;;;;9.63;7.85;;;;;;;11.41;48.30;100205.81;4956469;28;20066;-92
2022/02/11 10:38:41;;;;;;;11.30;8.90;;;;;;;11.13;47.96;100147.16;4956739;28;20133;-96
2022/02/11 10:41:06;;;;;;;14.38;9.02;;;;;;;10.83;47.94;100100.28;4956926;28;20504;-94
2022/02/11 10:43:32;;;;;;;9.27;7.68;;;;;;;11.77;47.84;100218.63;4974338;28;20031;-95
2022/02/11 10:46:04;;;;;;;11.07;8.02;;;;;;;11.05;47.09;100077.63;4957376;28;20023;-93
2022/02/11 10:48:35;;;;;;;9.93;8.40;;;;;;;11.97;46.99;100201.44;4957343;28;20033;-94
2022/02/11 10:51:04;;;;;;;7.00;6.15;;;;;;;12.03;47.26;100190.16;4956831;28;20571;-95
2022/02/11 10:53:39;;;;;;;10.27;7.63;;;;;;;12.10;46.82;100211.47;4957976;28;20030;-95
2022/02/11 10:56:04;;;;;;;8.40;6.63;;;;;;;11.64;46.90;100099.31;4957211;28;20037;-95
2022/02/11 10:58:32;;;;;;;12.07;9.05;;;;;;;12.19;46.92;100180.50;4956911;28;20411;-94
2022/02/11 11:01:03;;;;;;;8.75;7.18;;;;;;;11.89;46.43;100127.38;4957324;28;20031;-95
2022/02/11 11:03:31;;;;;;;6.78;6.03;;;;;;;12.20;46.45;100179.50;4956877;28;20037;-95
2022/02/11 11:05:57;;;;;;;6.65;5.63;;;;;;;12.27;46.63;100161.91;4956184;28;20107;-94
2022/02/11 11:08:25;;;;;;;7.22;6.28;;;;;;;12.29;46.40;100158.09;4956463;28;20026;-95
2022/02/11 11:10:54;;;;;;;10.80;6.10;;;;;;;10.59;45.99;99891.69;4973859;28;20199;-95
2022/02/11 11:13:20;;;;;;;6.65;5.18;;;;;;;11.54;45.47;100014.06;4956859;28;20053;-95
2022/02/11 11:15:50;;;;;;;6.47;5.43;;;;;;;11.92;45.74;100075.91;4977580;28;20488;-95
2022/02/11 11:18:19;;;;;;;6.78;5.35;;;;;;;11.17;45.88;99978.53;4977036;28;20031;-95
2022/02/11 11:20:47;;;;;;;6.68;5.97;;;;;;;12.26;45.95;100123.22;4959372;28;20023;-94
2022/02/11 11:23:20;;;;;;;8.02;5.75;;;;;;;11.79;46.13;100028.84;4959256;28;20492;-94
2022/02/11 11:26:03;;;;;;;9.95;6.85;;;;;;;11.91;45.68;100037.22;4958833;28;20026;-94
2022/02/11 11:28:42;;;;;;;13.63;8.52;;;;;;;12.64;45.82;100134.72;4959263;28;20062;-94
2022/02/11 11:31:24;;;;;;;6.00;5.28;;;;;;;12.65;45.90;100126.59;4959248;28;20069;-95
2022/02/11 11:33:51;;;;;;;6.10;5.50;;;;;;;12.29;45.55;100064.59;4959194;28;20022;-94
2022/02/11 11:36:18;;;;;;;5.95;4.90;;;;;;;12.71;45.09;100127.72;4959652;28;20117;-94
2022/02/11 11:38:50;;;;;;;6.05;5.45;;;;;;;12.41;45.19;100090.50;4959627;28;20054;-94
2022/02/11 11:41:17;;;;;;;9.88;7.03;;;;;;;12.21;45.17;100070.78;4960181;28;20500;-95
2022/02/11 11:43:49;;;;;;;6.18;5.30;;;;;;;12.71;45.12;100130.38;4960644;28;20031;-95
2022/02/11 11:46:18;;;;;;;6.80;5.95;;;;;;;12.70;45.20;100118.13;4960099;28;20038;-94
2022/02/11 11:49:00;;;;;;;10.15;6.85;;;;;;;12.20;44.91;100044.47;4959761;28;20089;-94
2022/02/11 11:51:54;;;;;;;9.18;6.50;;;;;;;12.68;45.26;100104.22;4960325;28;20057;-94
2022/02/11 11:54:22;;;;;;;9.07;5.50;;;;;;;12.65;44.98;100097.47;4969798;28;20062;-94
2022/02/11 11:56:53;;;;;;;6.68;5.32;;;;;;;12.66;44.67;100096.47;4960141;28;20026;-93
2022/02/11 11:59:23;;;;;;;8.98;6.40;;;;;;;11.95;44.41;100026.13;4960021;28;20031;-94
2022/02/11 12:02:10;;;;;;;11.43;7.47;;;;;;;12.23;44.78;100034.38;4959766;28;20062;-93
2022/02/11 12:04:41;;;;;;;6.43;5.13;;;;;;;12.63;44.34;100096.81;4959318;28;20031;-93
2022/02/11 12:07:11;;;;;;;13.10;6.10;;;;;;;12.63;44.40;100091.53;4959139;28;20484;-93
2022/02/11 12:09:38;;;;;;;5.07;4.57;;;;;;;12.64;44.19;100089.69;4958747;28;20039;-93
2022/02/11 12:12:09;;;;;;;5.78;5.03;;;;;;;12.33;44.71;100042.06;4959355;28;20122;-94
2022/02/11 12:14:37;;;;;;;6.90;4.40;;;;;;;11.35;44.54;99875.19;4958880;28;20062;-93
2022/02/11 12:17:05;;;;;;;8.05;5.03;;;;;;;11.99;44.59;99982.44;4958805;28;20042;-93
2022/02/11 12:19:32;;;;;;;8.10;5.50;;;;;;;12.36;44.05;100052.31;4975967;28;20102;-93
2022/02/11 12:21:59;;;;;;;6.50;4.20;;;;;;;11.91;43.81;99958.66;4958097;28;20583;-93
2022/02/11 12:27:21;;;;;;;24.00;17.77;;;;;;;12.36;44.00;99983.47;4975150;28;20069;-93
2022/02/11 12:29:48;;;;;;;15.88;11.25;;;;;;;13.07;43.75;100066.94;4957810;28;20467;-93
2022/02/11 12:32:18;;;;;;;10.73;8.23;;;;;;;12.43;43.70;99965.84;4961989;28;20113;-94
2022/02/11 12:34:52;;;;;;;8.15;5.82;;;;;;;12.82;44.02;100008.06;4994352;28;20022;-93
2022/02/11 12:37:18;;;;;;;6.75;4.72;;;;;;;13.10;43.65;100061.28;4976684;28;20424;-93
2022/02/11 12:39:44;;;;;;;7.05;5.88;;;;;;;12.81;43.69;100026.78;4976777;28;20539;-93
2022/02/11 12:42:10;;;;;;;7.00;4.93;;;;;;;13.01;43.76;100055.22;4976774;28;20030;-95
2022/02/11 12:44:36;;;;;;;5.63;4.85;;;;;;;12.54;43.69;99980.50;4994217;28;20104;-93
2022/02/11 12:47:04;;;;;;;5.50;4.95;;;;;;;12.95;43.44;100045.34;4977281;28;20106;-93
2022/02/11 12:49:33;;;;;;;5.78;4.60;;;;;;;12.34;43.82;99949.22;4977442;28;20050;-93
2022/02/11 12:51:59;;;;;;;4.35;3.95;;;;;;;12.94;43.50;100045.53;4978451;28;20026;-93
2022/02/11 12:54:25;;;;;;;5.00;4.50;;;;;;;12.72;43.79;99995.06;4977438;28;20026;-93
2022/02/11 12:57:03;;;;;;;10.05;5.20;;;;;;;12.76;44.03;99994.72;4977522;28;20027;-93
2022/02/11 12:59:30;;;;;;;5.15;4.35;;;;;;;13.00;44.04;100047.47;4977871;28;20026;-93
2022/02/11 13:01:56;;;;;;;6.20;4.78;;;;;;;12.89;43.47;100008.16;4977618;28;20036;-93
2022/02/11 13:04:22;;;;;;;9.05;6.68;;;;;;;12.85;43.51;100005.03;4977601;28;20062;-93
2022/02/11 13:06:48;;;;;;;9.15;5.30;;;;;;;13.07;43.80;100029.00;4994576;28;20499;-93
2022/02/11 13:09:13;;;;;;;8.13;5.82;;;;;;;12.79;44.29;99997.81;4976850;28;20034;-93
2022/02/11 13:11:43;;;;;;;7.72;6.07;;;;;;;12.80;44.57;99975.63;4977212;28;20495;-93
2022/02/11 13:14:09;;;;;;;8.13;5.07;;;;;;;12.35;44.07;99927.03;4976847;28;20058;-93
2022/02/11 13:16:37;;;;;;;5.05;4.22;;;;;;;13.16;43.77;100023.44;4977212;28;20026;-93
2022/02/11 13:19:13;;;;;;;8.95;5.07;;;;;;;12.97;44.39;99985.03;4976816;28;20037;-93
2022/02/11 13:21:40;;;;;;;10.90;5.25;;;;;;;13.11;44.17;100007.25;4976742;28;20022;-94
2022/02/11 13:24:06;;;;;;;9.60;6.90;;;;;;;12.77;44.44;99948.66;4993777;28;20065;-93
2022/02/11 13:26:32;;;;;;;7.03;5.15;;;;;;;12.39;44.41;99883.31;4976887;28;20033;-93
2022/02/11 13:28:58;;;;;;;8.00;5.22;;;;;;;13.19;44.32;100012.50;4976833;28;20030;-93
2022/02/11 13:31:23;;;;;;;7.55;5.38;;;;;;;13.30;44.58;100017.31;4993925;28;20029;-93
2022/02/11 13:34:11;;;;;;;6.88;5.00;;;;;;;13.06;44.32;99959.25;4976555;28;20026;-93
2022/02/11 13:36:37;;;;;;;5.30;4.78;;;;;;;13.39;44.04;100009.31;4975535;28;20037;-93
2022/02/11 13:39:03;;;;;;;6.07;5.05;;;;;;;13.42;44.09;100011.59;4992655;28;20058;-93
2022/02/11 13:41:38;;;;;;;5.07;4.35;;;;;;;13.08;43.89;99953.78;4976157;28;20026;-93
2022/02/11 13:44:09;;;;;;;5.03;4.28;;;;;;;13.13;43.99;99976.06;4976050;28;20037;-94
2022/02/11 13:46:48;;;;;;;4.65;4.10;;;;;;;13.41;43.92;99999.34;4975864;28;20122;-93
2022/02/11 13:49:15;;;;;;;6.20;4.15;;;;;;;13.33;43.51;99989.63;4975922;28;20035;-94
2022/02/11 13:51:42;;;;;;;7.75;5.22;;;;;;;13.48;43.56;100002.88;4976591;28;20030;-93
2022/02/11 13:54:15;;;;;;;5.50;4.40;;;;;;;13.46;43.48;99989.00;4978861;28;20499;-93
2022/02/11 13:56:46;;;;;;;5.85;4.75;;;;;;;13.54;43.26;100004.78;4979817;28;20508;-93
2022/02/11 13:59:15;;;;;;;7.57;5.65;;;;;;;12.99;43.16;99931.84;5014695;28;20029;-92
2022/02/11 14:01:44;;;;;;;9.30;6.85;;;;;;;13.43;43.53;99981.41;5002029;28;20049;-93
2022/02/11 14:04:12;;;;;;;6.43;5.40;;;;;;;13.65;42.89;99993.69;4999014;28;20030;-94
2022/02/11 14:06:50;;;;;;;8.20;5.32;;;;;;;13.69;42.96;99994.97;4981487;28;20026;-93
2022/02/11 14:09:36;;;;;;;5.70;5.00;;;;;;;13.47;43.34;99956.16;4981646;28;20029;-93
2022/02/11 14:12:25;;;;;;;7.70;5.57;;;;;;;13.79;42.88;99998.16;4979518;28;20117;-93
2022/02/11 14:14:51;;;;;;;8.93;6.43;;;;;;;13.62;42.71;99955.09;4975789;28;20086;-93
2022/02/11 14:17:17;;;;;;;9.25;6.47;;;;;;;13.69;42.49;99976.41;4975899;28;20042;-92
2022/02/11 14:19:43;;;;;;;7.95;5.55;;;;;;;11.56;42.28;99620.69;4976137;28;20026;-93
2022/02/11 14:22:08;;;;;;;8.35;5.78;;;;;;;13.88;42.43;99997.03;4976279;28;20038;-93
2022/02/11 14:24:34;;;;;;;7.13;4.93;;;;;;;13.74;42.40;99974.00;4993737;28;20488;-93
2022/02/11 14:26:59;;;;;;;7.90;4.95;;;;;;;14.12;41.81;100001.16;4976736;28;20575;-92
2022/02/11 14:29:25;;;;;;;7.95;5.63;;;;;;;13.31;41.82;99857.22;4976738;28;20040;-93
2022/02/11 14:31:54;;;;;;;8.55;6.45;;;;;;;13.73;41.43;99887.44;4982378;28;20143;-92
2022/02/11 14:34:19;;;;;;;7.40;5.80;;;;;;;13.52;41.25;99853.78;4999817;28;20023;-93
2022/02/11 14:36:45;;;;;;;16.40;10.40;;;;;;;14.55;41.13;99994.00;5000321;28;20030;-92
2022/02/11 14:39:13;;;;;;;12.18;10.00;;;;;;;14.89;40.31;99987.13;4983682;28;20030;-92
2022/02/11 14:41:46;;;;;;;16.65;10.07;;;;;;;14.66;39.88;99926.22;4980549;28;20525;-92
2022/02/11 14:44:11;;;;;;;13.95;8.82;;;;;;;14.87;39.63;99958.06;4982481;28;20030;-92
2022/02/11 14:46:36;;;;;;;21.27;13.70;;;;;;;14.00;40.06;99848.66;4976094;28;20023;-93
2022/02/11 14:49:02;;;;;;;18.42;14.10;;;;;;;14.21;40.42;99885.00;4976270;28;20086;-93
2022/02/11 14:51:27;;;;;;;18.80;14.13;;;;;;;14.11;40.14;99885.31;4979165;28;20527;-92
2022/02/11 14:53:53;;;;;;;18.33;13.52;;;;;;;14.75;40.37;99991.50;4979403;28;20073;-93
2022/02/11 14:56:18;;;;;;;15.55;11.70;;;;;;;14.56;40.21;99969.09;4979428;28;20026;-93
2022/02/11 14:58:44;;;;;;;16.40;10.70;;;;;;;14.68;40.12;99992.47;4979653;28;20030;-92
2022/02/11 15:01:10;;;;;;;22.77;11.43;;;;;;;14.57;40.13;99991.97;4979206;28;20033;-93
2022/02/11 15:03:36;;;;;;;24.65;13.32;;;;;;;12.57;40.56;99718.72;4979034;28;20058;-92
2022/02/11 15:06:02;;;;;;;31.67;19.70;;;;;;;14.37;41.10;99996.28;4979246;28;20408;-93
2022/02/11 15:08:27;;;;;;;38.45;24.75;;;;;;;14.13;41.58;99962.97;4979117;28;20034;-93
2022/02/11 15:10:53;;;;;;;26.75;17.23;;;;;;;13.98;41.90;99959.53;4979338;28;20026;-93
2022/02/11 15:13:18;;;;;;;27.40;15.50;;;;;;;14.16;41.66;99994.47;4979268;28;20108;-93
2022/02/11 15:15:44;;;;;;;22.67;15.40;;;;;;;13.40;42.25;99891.59;4978950;28;20574;-92
2022/02/11 15:18:10;;;;;;;25.83;12.55;;;;;;;13.92;41.97;99990.31;4978912;28;20038;-93
2022/02/11 15:20:41;;;;;;;22.83;13.18;;;;;;;13.64;42.11;99968.19;4978938;28;20503;-93
2022/02/11 15:23:07;;;;;;;15.93;10.07;;;;;;;12.93;42.38;99885.69;4978938;28;20034;-93
2022/02/11 15:25:32;;;;;;;19.52;11.00;;;;;;;12.96;42.38;99897.75;4978817;28;20030;-93
2022/02/11 15:27:58;;;;;;;18.88;10.43;;;;;;;13.45;42.64;99990.00;4978912;28;20068;-93
2022/02/11 15:30:23;;;;;;;18.80;10.63;;;;;;;12.48;43.03;99870.78;4978636;28;20034;-93
2022/02/11 15:32:49;;;;;;;23.70;12.38;;;;;;;12.56;43.16;99905.13;4978888;28;20037;-93
2022/02/11 15:35:14;;;;;;;15.07;9.98;;;;;;;12.96;43.74;99985.22;4978705;28;20030;-93
2022/02/11 15:37:40;;;;;;;17.38;11.25;;;;;;;11.17;44.70;99721.34;4996040;28;20050;-93
2022/02/11 15:40:06;;;;;;;12.93;8.50;;;;;;;12.79;45.75;99967.84;4996656;28;20041;-94
2022/02/11 15:42:33;;;;;;;13.38;8.82;;;;;;;12.79;46.45;99989.88;4978900;28;20085;-93
2022/02/11 15:44:59;;;;;;;15.35;10.38;;;;;;;11.86;47.41;99843.75;4978825;28;20034;-93
2022/02/11 15:47:25;;;;;;;16.65;10.40;;;;;;;12.50;48.25;99989.78;4978613;28;20030;-93
2022/02/11 15:49:51;;;;;;;18.42;11.77;;;;;;;11.95;48.72;99901.75;4978589;28;20034;-93
2022/02/11 15:52:17;;;;;;;18.02;11.95;;;;;;;11.18;48.91;99816.31;4978269;28;20033;-93
2022/02/11 15:54:42;;;;;;;15.82;12.02;;;;;;;12.38;49.38;100003.47;4978548;28;20030;-93
2022/02/11 15:57:08;;;;;;;20.15;12.70;;;;;;;11.69;50.11;99906.53;4978450;28;20037;-93
2022/02/11 15:59:33;;;;;;;17.35;13.40;;;;;;;11.85;50.31;99942.66;4978029;28;20034;-94
2022/02/11 16:01:59;;;;;;;21.92;14.02;;;;;;;11.56;50.75;99919.50;4977261;28;20061;-94
2022/02/11 16:04:24;;;;;;;17.67;13.02;;;;;;;11.62;50.76;99937.31;4977945;28;20034;-94
2022/02/11 16:06:50;;;;;;;17.02;12.55;;;;;;;11.68;51.98;99958.59;4977756;28;20522;-94
2022/02/11 16:09:15;;;;;;;15.48;12.50;;;;;;;11.59;52.14;99982.63;4977850;28;20026;-94
2022/02/11 16:11:40;;;;;;;14.93;11.60;;;;;;;11.42;52.48;99939.59;4977965;28;20034;-94
2022/02/11 16:14:06;;;;;;;18.27;12.18;;;;;;;11.63;52.82;99990.03;4977630;28;20023;-94
2022/02/11 16:16:31;;;;;;;17.27;13.32;;;;;;;11.57;53.36;100013.72;4977629;28;20030;-93
2022/02/11 16:18:57;;;;;;;15.57;13.88;;;;;;;10.99;53.68;99925.06;4977664;28;20022;-94
2022/02/11 16:21:22;;;;;;;19.38;16.02;;;;;;;11.32;53.98;99981.28;4995310;28;20085;-94
2022/02/11 16:23:47;;;;;;;25.90;16.45;;;;;;;10.24;53.92;99821.66;4977996;28;20033;-94
2022/02/11 16:26:13;;;;;;;16.70;14.00;;;;;;;11.58;54.68;100062.97;4977651;28;20120;-94
2022/02/11 16:28:40;;;;;;;16.85;13.63;;;;;;;11.43;54.97;100034.59;4977513;28;20030;-94
2022/02/11 16:31:25;;;;;;;21.13;15.98;;;;;;;11.20;54.74;100007.25;4977612;28;20034;-93
2022/02/11 16:33:52;;;;;;;20.08;15.43;;;;;;;11.14;55.02;100014.03;4976056;28;20531;-93
2022/02/11 16:36:19;;;;;;;15.73;14.05;;;;;;;10.17;55.54;99850.50;4976359;28;20419;-92
2022/02/11 16:38:45;;;;;;;19.90;15.57;;;;;;;11.16;56.65;100019.16;4976983;28;20062;-94
2022/02/11 16:41:11;;;;;;;22.13;15.13;;;;;;;10.85;56.33;99990.00;4968767;28;20035;-93
2022/02/11 16:43:37;;;;;;;20.13;16.23;;;;;;;10.78;56.06;99995.13;4958207;28;20038;-95
2022/02/11 16:46:03;;;;;;;26.08;17.50;;;;;;;10.60;56.48;99957.53;4957835;28;20033;-94
2022/02/11 16:48:29;;;;;;;20.23;15.02;;;;;;;10.82;56.52;100008.81;4958048;28;20031;-94
2022/02/11 16:50:54;;;;;;;20.15;14.52;;;;;;;10.18;56.99;99905.72;4958244;28;20030;-95
2022/02/11 16:53:19;;;;;;;19.67;16.17;;;;;;;10.65;56.96;99986.06;4958350;28;20403;-95
2022/02/11 16:55:45;;;;;;;19.88;16.35;;;;;;;10.93;57.28;100044.63;4958181;28;20038;-95
2022/02/11 16:58:10;;;;;;;22.40;16.77;;;;;;;9.20;57.30;99809.13;4958182;28;20098;-95
2022/02/11 17:00:36;;;;;;;23.10;17.58;;;;;;;10.42;57.35;100001.78;4958028;28;20027;-94
2022/02/11 17:03:01;;;;;;;32.30;24.15;;;;;;;10.62;57.49;100029.47;4958220;28;20023;-94
2022/02/11 17:05:28;;;;;;;37.22;26.48;;;;;;;9.55;57.79;99876.53;4958020;28;20031;-94
2022/02/11 17:07:54;;;;;;;40.03;29.73;;;;;;;10.19;57.64;99980.44;4958371;28;20117;-94
2022/02/11 17:10:20;;;;;;;40.63;29.27;;;;;;;10.71;57.95;100048.78;4958195;28;20153;-94
2022/02/11 17:12:48;;;;;;;38.83;30.98;;;;;;;9.62;57.65;99937.34;4957835;28;20031;-95
2022/02/11 17:15:14;;;;;;;45.20;35.15;;;;;;;10.25;57.98;100018.56;4958213;28;20027;-94
2022/02/11 17:17:41;;;;;;;50.03;37.03;;;;;;;10.16;58.00;100002.69;4958672;28;20027;-94
2022/02/11 17:20:12;;;;;;;47.33;34.67;;;;;;;9.57;58.52;99906.19;4958505;28;20026;-95
2022/02/11 17:22:38;;;;;;;54.63;39.95;;;;;;;10.53;58.47;100041.03;4957864;28;20027;-94
2022/02/11 17:25:04;;;;;;;55.05;42.55;;;;;;;10.51;58.39;100043.03;4956891;28;20031;-92
2022/02/11 17:27:32;;;;;;;57.75;45.97;;;;;;;9.98;58.19;99966.91;4956536;28;20077;-91
2022/02/11 17:29:57;;;;;;;63.85;47.08;;;;;;;10.09;58.40;99985.06;4956680;28;20137;-92
2022/02/11 17:32:23;;;;;;;69.07;47.50;;;;;;;9.72;58.54;99938.88;4956618;28;20484;-92
2022/02/11 17:34:48;;;;;;;66.18;49.40;;;;;;;9.95;58.33;99978.63;4956598;28;20114;-91
2022/02/11 17:37:13;;;;;;;64.68;49.60;;;;;;;10.10;59.19;100024.47;4956282;28;20047;-92
2022/02/11 17:39:41;;;;;;;64.05;46.35;;;;;;;10.30;58.83;100098.06;4956438;28;20493;-92
2022/02/11 17:42:07;;;;;;;56.70;42.42;;;;;;;10.06;59.19;100028.41;4956558;28;20030;-92
2022/02/11 17:44:33;;;;;;;51.40;39.95;;;;;;;10.28;59.43;100065.75;4956482;28;20097;-93
2022/02/11 17:46:58;;;;;;;50.30;38.95;;;;;;;9.31;59.40;99908.94;4956233;28;20106;-92
2022/02/11 17:49:23;;;;;;;51.53;38.90;;;;;;;10.19;59.30;100062.25;4956414;28;20101;-92
2022/02/11 17:51:49;;;;;;;51.20;40.67;;;;;;;9.52;59.29;99962.03;4956446;28;20496;-93
2022/02/11 17:54:16;;;;;;;55.08;42.28;;;;;;;10.07;59.60;100053.81;4956353;28;20030;-92
2022/02/11 17:56:41;;;;;;;52.60;40.22;;;;;;;9.83;59.91;100032.66;4956320;28;20027;-92
2022/02/11 17:59:08;;;;;;;53.72;40.13;;;;;;;9.77;59.53;100022.75;4956166;28;20049;-93
2022/02/11 18:01:35;;;;;;;58.45;42.47;;;;;;;9.98;59.82;100073.25;4956135;28;20028;-93
2022/02/11 18:04:00;;;;;;;50.33;40.40;;;;;;;9.76;59.67;100024.56;4956138;28;20178;-93
2022/02/11 18:06:26;;;;;;;47.97;36.72;;;;;;;9.48;59.68;99994.97;4956192;28;20078;-92
2022/02/11 18:08:51;;;;;;;47.10;37.38;;;;;;;9.62;60.02;100008.50;4955878;28;20388;-92
2022/02/11 18:11:17;;;;;;;51.05;39.53;;;;;;;9.72;60.18;100039.06;4956207;28;20058;-92
2022/02/11 18:13:42;;;;;;;58.95;43.95;;;;;;;9.41;60.14;100028.22;4956175;28;20023;-93
2022/02/11 18:16:07;;;;;;;58.95;41.88;;;;;;;9.90;60.00;100089.06;4956317;28;20097;-93
2022/02/11 18:18:33;;;;;;;54.67;42.10;;;;;;;9.87;60.14;100078.81;4966874;28;20037;-91
2022/02/11 18:20:59;;;;;;;48.50;38.25;;;;;;;9.07;60.43;99949.19;4981738;28;20019;-93
2022/02/11 18:23:24;;;;;;;54.63;40.75;;;;;;;9.66;60.55;100052.88;4982013;28;20070;-94
2022/02/11 18:25:50;;;;;;;61.65;43.67;;;;;;;9.06;60.44;99973.88;4969222;28;20037;-95
2022/02/11 18:28:15;;;;;;;61.17;45.72;;;;;;;9.56;60.82;100089.88;4969611;28;20014;-94
2022/02/11 18:30:41;;;;;;;68.45;51.63;;;;;;;8.87;60.65;99964.38;4985980;28;20023;-95
2022/02/11 18:33:06;;;;;;;75.07;56.55;;;;;;;9.40;61.16;100070.53;4988956;28;20169;-94
2022/02/11 18:35:31;;;;;;;65.28;52.30;;;;;;;9.59;60.78;100083.47;4970498;28;20034;-94
2022/02/11 18:37:57;;;;;;;63.95;47.63;;;;;;;8.60;60.88;99940.88;4977556;28;20129;-95
2022/02/11 18:40:23;;;;;;;68.55;51.30;;;;;;;8.88;61.04;99965.22;4977708;28;20041;-94
2022/02/11 18:42:48;;;;;;;70.53;49.80;;;;;;;8.75;61.12;99957.75;4977561;28;20026;-95
2022/02/11 18:45:14;;;;;;;65.65;45.15;;;;;;;9.51;60.95;100105.34;4977780;28;20180;-95